Terminal Aerodrome Forecast
Issued by NWS

Home | Current Version | Previous Version | Text Only | Print | Product List | Glossary On
Versions: 1 2 3 4 5 6 7 8 9 10 11 12 13
000
FTUS46 KSEW 252338
TAFCLM
TAF
KCLM 252338Z 2600/2624 28007KT P6SM VCSH SCT020 OVC030
      TEMPO 2600/2604 3SM -RASN BKN020 OVC035
     FM260400 25012KT P6SM SCT070 BKN250
     FM261200 24005KT P6SM BKN020 OVC030
     FM262000 VRB03KT P6SM OVC035=

USA.gov is the U.S. government's official web portal to all federal, state and local government web resources and services.